sensor_id;sensor_type;location;lat;lon;timestamp;temperature;humidity
15690;DHT22;7945;48.816;11.506;2022-09-02T00:00:41;16.50;97.90
15690;DHT22;7945;48.816;11.506;2022-09-02T00:03:08;16.50;97.70
15690;DHT22;7945;48.816;11.506;2022-09-02T00:05:35;16.40;97.80
15690;DHT22;7945;48.816;11.506;2022-09-02T00:08:02;16.40;98.10
15690;DHT22;7945;48.816;11.506;2022-09-02T00:10:32;16.40;97.70
15690;DHT22;7945;48.816;11.506;2022-09-02T00:12:59;16.40;97.60
15690;DHT22;7945;48.816;11.506;2022-09-02T00:15:26;16.40;97.50
15690;DHT22;7945;48.816;11.506;2022-09-02T00:17:53;16.40;97.50
15690;DHT22;7945;48.816;11.506;2022-09-02T00:20:20;16.30;97.50
15690;DHT22;7945;48.816;11.506;2022-09-02T00:22:47;16.30;97.60
15690;DHT22;7945;48.816;11.506;2022-09-02T00:25:14;16.30;97.60
15690;DHT22;7945;48.816;11.506;2022-09-02T00:27:43;16.20;97.80
15690;DHT22;7945;48.816;11.506;2022-09-02T00:30:11;16.20;97.50
15690;DHT22;7945;48.816;11.506;2022-09-02T00:32:38;16.20;97.50
15690;DHT22;7945;48.816;11.506;2022-09-02T00:35:06;16.20;97.50
15690;DHT22;7945;48.816;11.506;2022-09-02T00:37:33;16.20;97.50
15690;DHT22;7945;48.816;11.506;2022-09-02T00:40:00;16.20;97.50
15690;DHT22;7945;48.816;11.506;2022-09-02T00:42:27;16.10;97.50
15690;DHT22;7945;48.816;11.506;2022-09-02T00:44:56;16.20;97.60
15690;DHT22;7945;48.816;11.506;2022-09-02T00:47:22;16.10;97.60
15690;DHT22;7945;48.816;11.506;2022-09-02T00:49:52;16.10;97.90
15690;DHT22;7945;48.816;11.506;2022-09-02T00:52:23;16.00;97.70
15690;DHT22;7945;48.816;11.506;2022-09-02T00:54:54;16.00;97.70
15690;DHT22;7945;48.816;11.506;2022-09-02T00:57:24;16.00;97.70
15690;DHT22;7945;48.816;11.506;2022-09-02T00:59:57;16.00;97.80
15690;DHT22;7945;48.816;11.506;2022-09-02T01:02:27;15.90;97.80
15690;DHT22;7945;48.816;11.506;2022-09-02T01:04:56;15.90;97.80
15690;DHT22;7945;48.816;11.506;2022-09-02T01:07:26;15.90;97.80
15690;DHT22;7945;48.816;11.506;2022-09-02T01:09:55;15.90;97.80
15690;DHT22;7945;48.816;11.506;2022-09-02T01:12:23;15.80;97.80
15690;DHT22;7945;48.816;11.506;2022-09-02T01:14:52;15.80;98.10
15690;DHT22;7945;48.816;11.506;2022-09-02T01:17:20;15.80;97.80
15690;DHT22;7945;48.816;11.506;2022-09-02T01:19:50;15.80;97.80
15690;DHT22;7945;48.816;11.506;2022-09-02T01:22:22;15.80;97.80
15690;DHT22;7945;48.816;11.506;2022-09-02T01:24:49;15.70;97.70
15690;DHT22;7945;48.816;11.506;2022-09-02T01:27:18;15.70;97.70
15690;DHT22;7945;48.816;11.506;2022-09-02T01:29:50;15.70;97.70
15690;DHT22;7945;48.816;11.506;2022-09-02T01:32:17;15.70;97.60
15690;DHT22;7945;48.816;11.506;2022-09-02T01:34:44;15.70;97.60
15690;DHT22;7945;48.816;11.506;2022-09-02T01:37:11;15.70;97.60
15690;DHT22;7945;48.816;11.506;2022-09-02T01:39:39;15.70;97.50
15690;DHT22;7945;48.816;11.506;2022-09-02T01:42:06;15.70;97.60
15690;DHT22;7945;48.816;11.506;2022-09-02T01:44:34;15.70;97.40
15690;DHT22;7945;48.816;11.506;2022-09-02T01:47:02;15.70;97.50
15690;DHT22;7945;48.816;11.506;2022-09-02T01:49:29;15.60;97.40
15690;DHT22;7945;48.816;11.506;2022-09-02T01:51:56;15.60;97.30
15690;DHT22;7945;48.816;11.506;2022-09-02T01:54:23;15.60;97.60
15690;DHT22;7945;48.816;11.506;2022-09-02T01:56:51;15.60;97.50
15690;DHT22;7945;48.816;11.506;2022-09-02T01:59:18;15.60;97.20
15690;DHT22;7945;48.816;11.506;2022-09-02T02:01:46;15.60;97.20
15690;DHT22;7945;48.816;11.506;2022-09-02T02:04:13;15.60;97.20
15690;DHT22;7945;48.816;11.506;2022-09-02T02:06:41;15.60;97.10
15690;DHT22;7945;48.816;11.506;2022-09-02T02:09:08;15.60;97.10
15690;DHT22;7945;48.816;11.506;2022-09-02T02:11:36;15.60;97.00
15690;DHT22;7945;48.816;11.506;2022-09-02T02:14:04;15.60;97.00
15690;DHT22;7945;48.816;11.506;2022-09-02T02:16:31;15.60;97.00
15690;DHT22;7945;48.816;11.506;2022-09-02T02:18:58;15.60;97.30
15690;DHT22;7945;48.816;11.506;2022-09-02T02:21:25;15.50;97.00
15690;DHT22;7945;48.816;11.506;2022-09-02T02:23:53;15.50;97.00
15690;DHT22;7945;48.816;11.506;2022-09-02T02:26:20;15.50;97.20
15690;DHT22;7945;48.816;11.506;2022-09-02T02:28:47;15.50;96.90
15690;DHT22;7945;48.816;11.506;2022-09-02T02:31:15;15.50;96.90
15690;DHT22;7945;48.816;11.506;2022-09-02T02:33:42;15.50;97.10
15690;DHT22;7945;48.816;11.506;2022-09-02T02:36:09;15.50;96.80
15690;DHT22;7945;48.816;11.506;2022-09-02T02:38:37;15.50;96.80
15690;DHT22;7945;48.816;11.506;2022-09-02T02:41:05;15.50;96.80
15690;DHT22;7945;48.816;11.506;2022-09-02T02:43:32;15.50;96.80
15690;DHT22;7945;48.816;11.506;2022-09-02T02:45:59;15.40;96.80
15690;DHT22;7945;48.816;11.506;2022-09-02T02:48:27;15.50;96.80
15690;DHT22;7945;48.816;11.506;2022-09-02T02:50:54;15.40;96.80
15690;DHT22;7945;48.816;11.506;2022-09-02T02:53:21;15.40;96.90
15690;DHT22;7945;48.816;11.506;2022-09-02T02:55:48;15.40;96.90
15690;DHT22;7945;48.816;11.506;2022-09-02T02:58:16;15.30;96.90
15690;DHT22;7945;48.816;11.506;2022-09-02T03:00:42;15.40;96.90
15690;DHT22;7945;48.816;11.506;2022-09-02T03:03:10;15.30;96.80
15690;DHT22;7945;48.816;11.506;2022-09-02T03:05:39;15.30;96.80
15690;DHT22;7945;48.816;11.506;2022-09-02T03:08:07;15.30;96.90
15690;DHT22;7945;48.816;11.506;2022-09-02T03:10:35;15.30;96.80
15690;DHT22;7945;48.816;11.506;2022-09-02T03:13:03;15.30;96.80
15690;DHT22;7945;48.816;11.506;2022-09-02T03:15:30;15.30;97.20
15690;DHT22;7945;48.816;11.506;2022-09-02T03:17:57;15.20;96.90
15690;DHT22;7945;48.816;11.506;2022-09-02T03:20:24;15.20;96.90
15690;DHT22;7945;48.816;11.506;2022-09-02T03:22:55;15.20;96.90
15690;DHT22;7945;48.816;11.506;2022-09-02T03:25:24;15.20;96.90
15690;DHT22;7945;48.816;11.506;2022-09-02T03:27:52;15.10;96.90
15690;DHT22;7945;48.816;11.506;2022-09-02T03:30:21;15.20;97.30
15690;DHT22;7945;48.816;11.506;2022-09-02T03:32:49;15.10;97.00
15690;DHT22;7945;48.816;11.506;2022-09-02T03:35:18;15.10;96.90
15690;DHT22;7945;48.816;11.506;2022-09-02T03:37:46;15.10;96.90
15690;DHT22;7945;48.816;11.506;2022-09-02T03:40:17;15.10;97.30
15690;DHT22;7945;48.816;11.506;2022-09-02T03:42:44;15.10;97.00
15690;DHT22;7945;48.816;11.506;2022-09-02T03:45:12;15.00;97.00
15690;DHT22;7945;48.816;11.506;2022-09-02T03:47:41;15.00;97.10
15690;DHT22;7945;48.816;11.506;2022-09-02T03:50:10;15.00;97.10
15690;DHT22;7945;48.816;11.506;2022-09-02T03:52:37;15.00;97.20
15690;DHT22;7945;48.816;11.506;2022-09-02T03:55:05;14.90;97.20
15690;DHT22;7945;48.816;11.506;2022-09-02T03:57:34;14.90;97.20
15690;DHT22;7945;48.816;11.506;2022-09-02T04:00:01;14.90;97.20
15690;DHT22;7945;48.816;11.506;2022-09-02T04:02:29;14.90;97.30
15690;DHT22;7945;48.816;11.506;2022-09-02T04:04:55;14.90;97.30
15690;DHT22;7945;48.816;11.506;2022-09-02T04:07:22;14.90;97.20
15690;DHT22;7945;48.816;11.506;2022-09-02T04:09:49;14.90;97.30
15690;DHT22;7945;48.816;11.506;2022-09-02T04:12:16;14.90;97.30
15690;DHT22;7945;48.816;11.506;2022-09-02T04:14:44;14.90;97.20
15690;DHT22;7945;48.816;11.506;2022-09-02T04:17:11;14.90;97.30
15690;DHT22;7945;48.816;11.506;2022-09-02T04:19:38;14.80;97.30
15690;DHT22;7945;48.816;11.506;2022-09-02T04:22:05;14.80;97.30
15690;DHT22;7945;48.816;11.506;2022-09-02T04:24:32;14.80;97.30
15690;DHT22;7945;48.816;11.506;2022-09-02T04:26:59;14.80;97.30
15690;DHT22;7945;48.816;11.506;2022-09-02T04:29:26;14.90;97.40
15690;DHT22;7945;48.816;11.506;2022-09-02T04:31:54;14.80;97.30
15690;DHT22;7945;48.816;11.506;2022-09-02T04:34:21;14.80;97.30
15690;DHT22;7945;48.816;11.506;2022-09-02T04:36:48;14.90;97.40
15690;DHT22;7945;48.816;11.506;2022-09-02T04:39:14;14.80;97.30
15690;DHT22;7945;48.816;11.506;2022-09-02T04:41:41;14.90;97.30
15690;DHT22;7945;48.816;11.506;2022-09-02T04:44:08;14.90;97.40
15690;DHT22;7945;48.816;11.506;2022-09-02T04:46:35;14.90;97.30
15690;DHT22;7945;48.816;11.506;2022-09-02T04:49:03;14.90;97.30
15690;DHT22;7945;48.816;11.506;2022-09-02T04:51:30;14.90;97.30
15690;DHT22;7945;48.816;11.506;2022-09-02T04:53:58;14.90;97.60
15690;DHT22;7945;48.816;11.506;2022-09-02T04:56:27;14.90;97.30
15690;DHT22;7945;48.816;11.506;2022-09-02T04:58:55;14.90;97.20
15690;DHT22;7945;48.816;11.506;2022-09-02T05:01:25;14.90;97.50
15690;DHT22;7945;48.816;11.506;2022-09-02T05:03:52;14.90;97.20
15690;DHT22;7945;48.816;11.506;2022-09-02T05:06:23;15.00;97.20
15690;DHT22;7945;48.816;11.506;2022-09-02T05:08:51;15.00;97.20
15690;DHT22;7945;48.816;11.506;2022-09-02T05:11:22;15.30;96.90
15690;DHT22;7945;48.816;11.506;2022-09-02T05:13:53;16.20;95.90
15690;DHT22;7945;48.816;11.506;2022-09-02T05:16:22;17.10;94.60
15690;DHT22;7945;48.816;11.506;2022-09-02T05:18:51;18.10;93.40
15690;DHT22;7945;48.816;11.506;2022-09-02T05:21:18;19.00;92.20
15690;DHT22;7945;48.816;11.506;2022-09-02T05:23:48;19.80;90.80
15690;DHT22;7945;48.816;11.506;2022-09-02T05:26:15;20.40;90.00
15690;DHT22;7945;48.816;11.506;2022-09-02T05:28:42;20.80;87.80
15690;DHT22;7945;48.816;11.506;2022-09-02T05:31:12;21.00;87.40
15690;DHT22;7945;48.816;11.506;2022-09-02T05:33:40;20.90;87.10
15690;DHT22;7945;48.816;11.506;2022-09-02T05:36:09;20.60;87.70
15690;DHT22;7945;48.816;11.506;2022-09-02T05:38:37;20.10;87.70
15690;DHT22;7945;48.816;11.506;2022-09-02T05:41:06;19.70;90.00
15690;DHT22;7945;48.816;11.506;2022-09-02T05:43:34;19.20;90.60
15690;DHT22;7945;48.816;11.506;2022-09-02T05:46:04;19.20;90.80
15690;DHT22;7945;48.816;11.506;2022-09-02T05:48:32;19.50;90.30
15690;DHT22;7945;48.816;11.506;2022-09-02T05:51:17;19.70;89.90
15690;DHT22;7945;48.816;11.506;2022-09-02T05:53:44;19.80;90.00
15690;DHT22;7945;48.816;11.506;2022-09-02T05:56:13;19.90;89.00
15690;DHT22;7945;48.816;11.506;2022-09-02T05:58:40;19.70;89.30
15690;DHT22;7945;48.816;11.506;2022-09-02T06:01:08;19.50;89.80
15690;DHT22;7945;48.816;11.506;2022-09-02T06:03:35;19.50;90.20
15690;DHT22;7945;48.816;11.506;2022-09-02T06:06:02;19.60;90.00
15690;DHT22;7945;48.816;11.506;2022-09-02T06:08:30;19.80;90.00
15690;DHT22;7945;48.816;11.506;2022-09-02T06:10:57;20.10;88.60
15690;DHT22;7945;48.816;11.506;2022-09-02T06:14:46;20.10;88.00
15690;DHT22;7945;48.816;11.506;2022-09-02T06:17:13;19.80;88.30
15690;DHT22;7945;48.816;11.506;2022-09-02T06:19:40;19.50;89.40
15690;DHT22;7945;48.816;11.506;2022-09-02T06:22:08;19.10;89.90
15690;DHT22;7945;48.816;11.506;2022-09-02T06:24:35;18.80;90.40
15690;DHT22;7945;48.816;11.506;2022-09-02T06:27:02;18.50;90.90
15690;DHT22;7945;48.816;11.506;2022-09-02T06:29:31;18.40;91.20
15690;DHT22;7945;48.816;11.506;2022-09-02T06:32:00;18.30;91.30
15690;DHT22;7945;48.816;11.506;2022-09-02T06:34:27;18.10;91.40
15690;DHT22;7945;48.816;11.506;2022-09-02T06:36:54;17.90;91.90
15690;DHT22;7945;48.816;11.506;2022-09-02T06:39:22;17.80;91.80
15690;DHT22;7945;48.816;11.506;2022-09-02T06:41:50;17.70;92.30
15690;DHT22;7945;48.816;11.506;2022-09-02T06:44:18;17.70;92.30
15690;DHT22;7945;48.816;11.506;2022-09-02T06:46:48;17.70;92.40
15690;DHT22;7945;48.816;11.506;2022-09-02T06:49:19;17.70;92.50
15690;DHT22;7945;48.816;11.506;2022-09-02T06:51:48;17.60;92.40
15690;DHT22;7945;48.816;11.506;2022-09-02T06:54:16;17.60;92.40
15690;DHT22;7945;48.816;11.506;2022-09-02T06:56:44;17.50;92.20
15690;DHT22;7945;48.816;11.506;2022-09-02T06:59:11;17.50;92.50
15690;DHT22;7945;48.816;11.506;2022-09-02T07:01:38;17.40;92.20
15690;DHT22;7945;48.816;11.506;2022-09-02T07:04:05;17.40;92.70
15690;DHT22;7945;48.816;11.506;2022-09-02T07:06:53;17.40;92.60
15690;DHT22;7945;48.816;11.506;2022-09-02T07:09:22;17.30;92.50
15690;DHT22;7945;48.816;11.506;2022-09-02T07:11:56;17.30;92.80
15690;DHT22;7945;48.816;11.506;2022-09-02T07:14:23;17.30;92.80
15690;DHT22;7945;48.816;11.506;2022-09-02T07:16:53;17.40;93.00
15690;DHT22;7945;48.816;11.506;2022-09-02T07:19:22;17.40;92.80
15690;DHT22;7945;48.816;11.506;2022-09-02T07:21:51;17.40;92.90
15690;DHT22;7945;48.816;11.506;2022-09-02T07:24:18;17.50;93.10
15690;DHT22;7945;48.816;11.506;2022-09-02T07:26:45;17.50;92.80
15690;DHT22;7945;48.816;11.506;2022-09-02T07:29:12;17.50;93.30
15690;DHT22;7945;48.816;11.506;2022-09-02T07:31:42;17.50;93.10
15690;DHT22;7945;48.816;11.506;2022-09-02T07:34:09;17.60;93.00
15690;DHT22;7945;48.816;11.506;2022-09-02T07:36:39;17.60;92.70
15690;DHT22;7945;48.816;11.506;2022-09-02T07:39:09;17.50;92.20
15690;DHT22;7945;48.816;11.506;2022-09-02T07:41:37;17.50;92.50
15690;DHT22;7945;48.816;11.506;2022-09-02T07:44:05;17.60;92.60
15690;DHT22;7945;48.816;11.506;2022-09-02T07:46:33;17.60;92.70
15690;DHT22;7945;48.816;11.506;2022-09-02T07:49:03;17.70;92.20
15690;DHT22;7945;48.816;11.506;2022-09-02T07:51:31;17.60;92.10
15690;DHT22;7945;48.816;11.506;2022-09-02T07:53:58;17.60;92.60
15690;DHT22;7945;48.816;11.506;2022-09-02T07:56:27;17.60;92.50
15690;DHT22;7945;48.816;11.506;2022-09-02T07:58:53;17.60;92.50
15690;DHT22;7945;48.816;11.506;2022-09-02T08:01:21;17.60;92.70
15690;DHT22;7945;48.816;11.506;2022-09-02T08:03:48;17.60;92.70
15690;DHT22;7945;48.816;11.506;2022-09-02T08:06:15;17.70;93.20
15690;DHT22;7945;48.816;11.506;2022-09-02T08:08:42;17.80;92.90
15690;DHT22;7945;48.816;11.506;2022-09-02T08:11:09;17.80;92.30
15690;DHT22;7945;48.816;11.506;2022-09-02T08:13:38;17.80;92.70
15690;DHT22;7945;48.816;11.506;2022-09-02T08:16:05;17.90;92.70
15690;DHT22;7945;48.816;11.506;2022-09-02T08:18:33;18.00;92.40
15690;DHT22;7945;48.816;11.506;2022-09-02T08:21:00;18.00;92.00
15690;DHT22;7945;48.816;11.506;2022-09-02T08:23:27;18.00;92.20
15690;DHT22;7945;48.816;11.506;2022-09-02T08:25:54;18.00;91.40
15690;DHT22;7945;48.816;11.506;2022-09-02T08:28:20;18.00;92.10
15690;DHT22;7945;48.816;11.506;2022-09-02T08:30:49;18.10;92.10
15690;DHT22;7945;48.816;11.506;2022-09-02T08:33:16;18.10;91.60
15690;DHT22;7945;48.816;11.506;2022-09-02T08:35:43;18.20;92.10
15690;DHT22;7945;48.816;11.506;2022-09-02T08:38:10;18.20;91.60
15690;DHT22;7945;48.816;11.506;2022-09-02T08:40:39;18.30;91.70
15690;DHT22;7945;48.816;11.506;2022-09-02T08:43:18;18.30;90.90
15690;DHT22;7945;48.816;11.506;2022-09-02T08:45:52;18.30;91.00
15690;DHT22;7945;48.816;11.506;2022-09-02T08:48:22;18.30;91.00
15690;DHT22;7945;48.816;11.506;2022-09-02T08:50:56;18.40;91.40
15690;DHT22;7945;48.816;11.506;2022-09-02T08:53:31;18.40;91.10
15690;DHT22;7945;48.816;11.506;2022-09-02T08:56:02;18.50;90.50
15690;DHT22;7945;48.816;11.506;2022-09-02T08:58:37;18.50;90.90
15690;DHT22;7945;48.816;11.506;2022-09-02T09:01:16;18.50;90.60
15690;DHT22;7945;48.816;11.506;2022-09-02T09:04:04;18.60;90.30
15690;DHT22;7945;48.816;11.506;2022-09-02T09:06:40;18.70;90.70
15690;DHT22;7945;48.816;11.506;2022-09-02T09:09:23;18.70;89.40
15690;DHT22;7945;48.816;11.506;2022-09-02T09:12:00;18.70;90.40
15690;DHT22;7945;48.816;11.506;2022-09-02T09:14:32;18.90;90.50
15690;DHT22;7945;48.816;11.506;2022-09-02T09:17:07;19.00;90.00
15690;DHT22;7945;48.816;11.506;2022-09-02T09:19:41;19.00;89.00
15690;DHT22;7945;48.816;11.506;2022-09-02T09:22:12;19.10;88.90
15690;DHT22;7945;48.816;11.506;2022-09-02T09:24:42;19.20;88.90
15690;DHT22;7945;48.816;11.506;2022-09-02T09:27:12;19.20;87.40
15690;DHT22;7945;48.816;11.506;2022-09-02T09:29:40;19.30;87.60
15690;DHT22;7945;48.816;11.506;2022-09-02T09:32:16;19.40;86.70
15690;DHT22;7945;48.816;11.506;2022-09-02T09:35:00;19.50;86.80
15690;DHT22;7945;48.816;11.506;2022-09-02T09:37:30;19.60;85.10
15690;DHT22;7945;48.816;11.506;2022-09-02T09:39:57;19.70;87.60
15690;DHT22;7945;48.816;11.506;2022-09-02T09:42:32;19.80;84.10
15690;DHT22;7945;48.816;11.506;2022-09-02T09:45:01;19.80;84.40
15690;DHT22;7945;48.816;11.506;2022-09-02T09:47:41;19.90;84.80
15690;DHT22;7945;48.816;11.506;2022-09-02T09:50:11;20.10;84.70
15690;DHT22;7945;48.816;11.506;2022-09-02T09:52:40;20.20;82.20
15690;DHT22;7945;48.816;11.506;2022-09-02T09:55:14;20.20;82.90
15690;DHT22;7945;48.816;11.506;2022-09-02T09:57:43;20.40;82.40
15690;DHT22;7945;48.816;11.506;2022-09-02T10:00:19;20.40;80.80
15690;DHT22;7945;48.816;11.506;2022-09-02T10:02:50;20.40;80.20
15690;DHT22;7945;48.816;11.506;2022-09-02T10:05:26;20.40;81.40
15690;DHT22;7945;48.816;11.506;2022-09-02T10:07:55;20.50;81.00
15690;DHT22;7945;48.816;11.506;2022-09-02T10:10:24;20.60;81.50
15690;DHT22;7945;48.816;11.506;2022-09-02T10:12:54;20.80;79.00
15690;DHT22;7945;48.816;11.506;2022-09-02T10:15:29;20.70;78.90
15690;DHT22;7945;48.816;11.506;2022-09-02T10:18:09;20.80;79.00
15690;DHT22;7945;48.816;11.506;2022-09-02T10:20:47;20.80;78.40
15690;DHT22;7945;48.816;11.506;2022-09-02T10:23:23;20.90;76.60
15690;DHT22;7945;48.816;11.506;2022-09-02T10:26:05;21.00;77.30
15690;DHT22;7945;48.816;11.506;2022-09-02T10:29:01;21.00;74.80
15690;DHT22;7945;48.816;11.506;2022-09-02T10:31:39;21.00;76.20
15690;DHT22;7945;48.816;11.506;2022-09-02T10:34:15;21.10;75.40
15690;DHT22;7945;48.816;11.506;2022-09-02T10:37:05;21.20;74.50
15690;DHT22;7945;48.816;11.506;2022-09-02T10:39:56;21.30;73.00
15690;DHT22;7945;48.816;11.506;2022-09-02T10:42:32;21.50;74.50
15690;DHT22;7945;48.816;11.506;2022-09-02T10:45:05;21.60;73.90
15690;DHT22;7945;48.816;11.506;2022-09-02T10:47:35;21.60;72.80
15690;DHT22;7945;48.816;11.506;2022-09-02T10:50:12;21.70;71.70
15690;DHT22;7945;48.816;11.506;2022-09-02T10:52:59;21.70;71.80
15690;DHT22;7945;48.816;11.506;2022-09-02T10:55:38;21.80;71.40
15690;DHT22;7945;48.816;11.506;2022-09-02T10:58:12;21.80;70.30
15690;DHT22;7945;48.816;11.506;2022-09-02T11:00:43;21.80;69.00
15690;DHT22;7945;48.816;11.506;2022-09-02T11:03:14;21.70;67.90
15690;DHT22;7945;48.816;11.506;2022-09-02T11:05:49;21.70;70.10
15690;DHT22;7945;48.816;11.506;2022-09-02T11:08:20;21.80;70.30
15690;DHT22;7945;48.816;11.506;2022-09-02T11:10:55;21.80;70.30
15690;DHT22;7945;48.816;11.506;2022-09-02T11:13:29;21.90;69.90
15690;DHT22;7945;48.816;11.506;2022-09-02T11:16:02;21.90;68.90
15690;DHT22;7945;48.816;11.506;2022-09-02T11:18:34;22.00;68.10
15690;DHT22;7945;48.816;11.506;2022-09-02T11:21:23;22.00;68.10
15690;DHT22;7945;48.816;11.506;2022-09-02T11:23:56;22.20;68.70
15690;DHT22;7945;48.816;11.506;2022-09-02T11:26:28;22.20;69.60
15690;DHT22;7945;48.816;11.506;2022-09-02T11:29:04;22.20;69.20
15690;DHT22;7945;48.816;11.506;2022-09-02T11:31:34;22.30;71.10
15690;DHT22;7945;48.816;11.506;2022-09-02T11:34:10;22.30;68.40
15690;DHT22;7945;48.816;11.506;2022-09-02T11:36:42;22.40;68.40
15690;DHT22;7945;48.816;11.506;2022-09-02T11:39:11;22.50;68.30
15690;DHT22;7945;48.816;11.506;2022-09-02T11:42:05;22.50;67.60
15690;DHT22;7945;48.816;11.506;2022-09-02T11:48:06;22.50;67.30
15690;DHT22;7945;48.816;11.506;2022-09-02T11:50:53;22.50;66.80
15690;DHT22;7945;48.816;11.506;2022-09-02T11:53:27;22.50;67.10
15690;DHT22;7945;48.816;11.506;2022-09-02T11:55:58;22.60;66.00
15690;DHT22;7945;48.816;11.506;2022-09-02T11:58:36;22.70;67.80
15690;DHT22;7945;48.816;11.506;2022-09-02T12:01:20;22.80;67.80
15690;DHT22;7945;48.816;11.506;2022-09-02T12:03:52;22.90;65.60
15690;DHT22;7945;48.816;11.506;2022-09-02T12:06:20;22.80;65.70
15690;DHT22;7945;48.816;11.506;2022-09-02T12:09:09;22.80;67.10
15690;DHT22;7945;48.816;11.506;2022-09-02T12:11:44;22.90;67.30
15690;DHT22;7945;48.816;11.506;2022-09-02T12:21:03;23.00;64.70
15690;DHT22;7945;48.816;11.506;2022-09-02T12:24:01;22.90;65.60
15690;DHT22;7945;48.816;11.506;2022-09-02T12:29:44;22.90;64.70
15690;DHT22;7945;48.816;11.506;2022-09-02T12:32:11;22.90;64.80
15690;DHT22;7945;48.816;11.506;2022-09-02T12:35:07;22.90;65.20
15690;DHT22;7945;48.816;11.506;2022-09-02T12:37:52;22.90;64.30
15690;DHT22;7945;48.816;11.506;2022-09-02T12:40:29;22.90;64.80
15690;DHT22;7945;48.816;11.506;2022-09-02T12:42:59;22.90;65.40
15690;DHT22;7945;48.816;11.506;2022-09-02T12:45:30;22.90;64.30
15690;DHT22;7945;48.816;11.506;2022-09-02T12:48:01;22.80;64.10
15690;DHT22;7945;48.816;11.506;2022-09-02T12:50:52;22.90;64.20
15690;DHT22;7945;48.816;11.506;2022-09-02T12:53:27;22.90;64.20
15690;DHT22;7945;48.816;11.506;2022-09-02T12:55:57;23.00;64.90
15690;DHT22;7945;48.816;11.506;2022-09-02T12:58:31;23.00;64.70
15690;DHT22;7945;48.816;11.506;2022-09-02T13:01:24;23.00;64.30
15690;DHT22;7945;48.816;11.506;2022-09-02T13:04:19;23.00;63.60
15690;DHT22;7945;48.816;11.506;2022-09-02T13:10:18;23.00;65.10
15690;DHT22;7945;48.816;11.506;2022-09-02T13:13:13;23.00;64.00
15690;DHT22;7945;48.816;11.506;2022-09-02T13:16:04;23.10;64.30
15690;DHT22;7945;48.816;11.506;2022-09-02T13:18:54;23.00;63.80
15690;DHT22;7945;48.816;11.506;2022-09-02T13:21:49;23.10;62.60
15690;DHT22;7945;48.816;11.506;2022-09-02T13:24:41;23.00;63.20
15690;DHT22;7945;48.816;11.506;2022-09-02T13:27:49;23.00;63.50
15690;DHT22;7945;48.816;11.506;2022-09-02T13:30:20;23.10;63.50
15690;DHT22;7945;48.816;11.506;2022-09-02T13:32:58;23.20;62.50
15690;DHT22;7945;48.816;11.506;2022-09-02T13:35:27;23.10;63.00
15690;DHT22;7945;48.816;11.506;2022-09-02T13:37:56;23.10;63.70
15690;DHT22;7945;48.816;11.506;2022-09-02T13:40:27;23.10;62.50
15690;DHT22;7945;48.816;11.506;2022-09-02T13:42:55;23.10;63.80
15690;DHT22;7945;48.816;11.506;2022-09-02T13:45:24;23.10;62.20
15690;DHT22;7945;48.816;11.506;2022-09-02T13:47:52;23.10;63.00
15690;DHT22;7945;48.816;11.506;2022-09-02T13:50:22;23.10;64.10
15690;DHT22;7945;48.816;11.506;2022-09-02T13:52:52;23.10;63.70
15690;DHT22;7945;48.816;11.506;2022-09-02T13:55:20;23.10;63.80
15690;DHT22;7945;48.816;11.506;2022-09-02T13:57:53;23.00;64.00
15690;DHT22;7945;48.816;11.506;2022-09-02T14:00:27;23.00;63.90
15690;DHT22;7945;48.816;11.506;2022-09-02T14:02:57;23.00;62.80
15690;DHT22;7945;48.816;11.506;2022-09-02T14:05:26;23.00;63.40
15690;DHT22;7945;48.816;11.506;2022-09-02T14:07:55;23.00;62.10
15690;DHT22;7945;48.816;11.506;2022-09-02T14:10:25;23.10;64.60
15690;DHT22;7945;48.816;11.506;2022-09-02T14:12:53;23.10;63.10
15690;DHT22;7945;48.816;11.506;2022-09-02T14:15:24;23.10;63.70
15690;DHT22;7945;48.816;11.506;2022-09-02T14:18:13;23.10;63.70
15690;DHT22;7945;48.816;11.506;2022-09-02T14:21:01;23.10;62.70
15690;DHT22;7945;48.816;11.506;2022-09-02T14:23:31;23.00;63.30
15690;DHT22;7945;48.816;11.506;2022-09-02T14:26:00;23.00;63.10
15690;DHT22;7945;48.816;11.506;2022-09-02T14:28:29;23.00;63.30
15690;DHT22;7945;48.816;11.506;2022-09-02T14:31:00;23.00;62.80
15690;DHT22;7945;48.816;11.506;2022-09-02T14:33:37;23.00;62.40
15690;DHT22;7945;48.816;11.506;2022-09-02T14:36:07;22.90;63.00
15690;DHT22;7945;48.816;11.506;2022-09-02T14:38:36;22.90;63.00
15690;DHT22;7945;48.816;11.506;2022-09-02T14:41:08;22.90;63.00
15690;DHT22;7945;48.816;11.506;2022-09-02T14:43:42;23.00;63.70
15690;DHT22;7945;48.816;11.506;2022-09-02T14:46:22;23.20;62.90
15690;DHT22;7945;48.816;11.506;2022-09-02T14:48:53;23.20;63.80
15690;DHT22;7945;48.816;11.506;2022-09-02T14:51:22;23.20;62.70
15690;DHT22;7945;48.816;11.506;2022-09-02T14:53:51;23.20;62.60
15690;DHT22;7945;48.816;11.506;2022-09-02T14:56:42;23.20;62.10
15690;DHT22;7945;48.816;11.506;2022-09-02T14:59:09;23.20;62.10
15690;DHT22;7945;48.816;11.506;2022-09-02T15:01:37;23.10;60.20
15690;DHT22;7945;48.816;11.506;2022-09-02T15:04:05;23.00;61.00
15690;DHT22;7945;48.816;11.506;2022-09-02T15:06:33;23.00;61.90
15690;DHT22;7945;48.816;11.506;2022-09-02T15:08:59;22.90;61.70
15690;DHT22;7945;48.816;11.506;2022-09-02T15:11:27;23.00;61.20
15690;DHT22;7945;48.816;11.506;2022-09-02T15:13:53;22.90;62.50
15690;DHT22;7945;48.816;11.506;2022-09-02T15:16:20;22.90;61.70
15690;DHT22;7945;48.816;11.506;2022-09-02T15:18:48;23.00;62.70
15690;DHT22;7945;48.816;11.506;2022-09-02T15:21:15;23.00;60.90
15690;DHT22;7945;48.816;11.506;2022-09-02T15:23:43;23.00;61.80
15690;DHT22;7945;48.816;11.506;2022-09-02T15:26:11;23.00;61.90
15690;DHT22;7945;48.816;11.506;2022-09-02T15:28:38;22.90;61.50
15690;DHT22;7945;48.816;11.506;2022-09-02T15:31:05;22.90;62.40
15690;DHT22;7945;48.816;11.506;2022-09-02T15:33:32;22.90;62.30
15690;DHT22;7945;48.816;11.506;2022-09-02T15:36:04;22.90;61.60
15690;DHT22;7945;48.816;11.506;2022-09-02T15:38:31;22.80;60.60
15690;DHT22;7945;48.816;11.506;2022-09-02T15:41:10;22.80;61.10
15690;DHT22;7945;48.816;11.506;2022-09-02T15:43:37;22.80;61.00
15690;DHT22;7945;48.816;11.506;2022-09-02T15:46:19;22.80;61.90
15690;DHT22;7945;48.816;11.506;2022-09-02T15:48:46;22.80;62.40
15690;DHT22;7945;48.816;11.506;2022-09-02T15:51:15;22.80;61.70
15690;DHT22;7945;48.816;11.506;2022-09-02T15:53:42;22.70;61.80
15690;DHT22;7945;48.816;11.506;2022-09-02T15:56:18;22.70;62.00
15690;DHT22;7945;48.816;11.506;2022-09-02T15:58:45;22.60;62.30
15690;DHT22;7945;48.816;11.506;2022-09-02T16:01:12;22.60;62.50
15690;DHT22;7945;48.816;11.506;2022-09-02T16:03:39;22.60;61.20
15690;DHT22;7945;48.816;11.506;2022-09-02T16:06:06;22.60;61.80
15690;DHT22;7945;48.816;11.506;2022-09-02T16:08:34;22.60;62.80
15690;DHT22;7945;48.816;11.506;2022-09-02T16:11:04;22.60;62.60